createdAt,value
2018-11-28T05:38:36.947Z,84.07
2018-11-28T05:41:04.873Z,96.07
2018-11-28T05:43:32.874Z,100.87
2018-11-28T05:46:00.814Z,78.10
2018-11-28T05:48:28.742Z,94.10
2018-11-28T05:50:56.680Z,82.00
2018-11-28T05:53:24.654Z,117.00
2018-11-28T05:55:52.622Z,101.90
2018-11-28T05:58:20.881Z,94.27
2018-11-28T06:00:48.866Z,99.70
2018-11-28T06:03:16.824Z,88.13
2018-11-28T06:05:44.786Z,98.03
2018-11-28T06:08:12.723Z,103.23
2018-11-28T06:10:40.790Z,104.13
2018-11-28T06:13:08.811Z,103.40
2018-11-28T06:15:36.798Z,103.00
2018-11-28T06:18:05.198Z,100.13
2018-11-28T06:20:33.129Z,93.47
2018-11-28T06:23:01.114Z,103.87
2018-11-28T06:25:29.092Z,100.30
2018-11-28T06:27:57.070Z,107.53
2018-11-28T06:30:25.046Z,108.60
2018-11-28T06:32:52.976Z,92.93
2018-11-28T06:35:20.902Z,94.53
2018-11-28T06:37:48.856Z,109.67
2018-11-28T06:40:23.653Z,94.70
2018-11-28T06:42:46.023Z,88.10
2018-11-28T06:45:14.499Z,93.37
2018-11-28T06:47:42.434Z,89.87
2018-11-28T06:50:12.166Z,81.33
2018-11-28T06:52:40.132Z,89.10
2018-11-28T06:55:15.186Z,87.67
2018-11-28T06:57:43.155Z,89.47
2018-11-28T07:00:13.568Z,83.50
2018-11-28T07:02:41.791Z,76.90
2018-11-28T07:05:10.131Z,85.50
2018-11-28T07:07:38.082Z,74.67
2018-11-28T07:10:08.935Z,77.47
2018-11-28T07:12:36.890Z,65.97
2018-11-28T07:15:05.790Z,60.63
2018-11-28T07:17:33.751Z,63.40
2018-11-28T07:20:01.719Z,63.37
2018-11-28T07:22:29.642Z,61.87
2018-11-28T07:24:57.584Z,57.97
2018-11-28T07:27:25.544Z,65.70
2018-11-28T07:29:53.484Z,59.50
2018-11-28T07:32:21.454Z,65.93
2018-11-28T07:34:49.442Z,57.80
2018-11-28T07:37:17.418Z,57.30
2018-11-28T07:39:45.525Z,58.00
2018-11-28T07:42:13.147Z,60.43
2018-11-28T07:44:41.106Z,48.13
2018-11-28T16:01:45.325Z,15.20
2018-11-28T16:04:13.354Z,12.43
2018-11-28T16:06:41.298Z,18.07
2018-11-28T16:09:13.634Z,14.27
2018-11-28T16:11:41.658Z,16.90
2018-11-28T16:14:09.592Z,13.67
2018-11-28T16:16:37.610Z,16.53
2018-11-28T16:19:05.670Z,13.93
2018-11-28T16:21:33.684Z,12.47
2018-11-28T16:24:01.594Z,16.90
2018-11-28T16:26:29.564Z,18.90
2018-11-28T16:28:57.531Z,15.93
2018-11-28T16:31:25.455Z,18.00
2018-11-28T16:33:53.381Z,17.63
2018-11-28T16:36:21.398Z,14.93
2018-11-28T16:38:49.300Z,15.07
2018-11-28T16:41:17.247Z,17.97
2018-11-28T16:43:44.727Z,16.13
2018-11-28T16:46:12.710Z,22.43
2018-11-28T16:48:40.630Z,21.27
2018-11-28T16:51:08.665Z,21.30
2018-11-28T16:53:36.620Z,27.43
2018-11-28T16:56:04.962Z,20.30
2018-11-28T16:58:32.890Z,20.97
2018-11-28T17:01:00.818Z,21.33
2018-11-28T17:03:28.806Z,20.40
2018-11-28T17:05:56.754Z,28.70
2018-11-28T17:08:24.690Z,23.57
2018-11-28T17:10:52.639Z,23.27
2018-11-28T17:13:20.590Z,22.17
2018-11-28T17:15:48.515Z,24.20
2018-11-28T17:18:16.438Z,26.10
2018-11-28T17:20:44.399Z,19.10
2018-11-28T17:23:12.332Z,21.20
2018-11-28T17:25:40.271Z,25.17
2018-11-28T17:28:08.298Z,23.83
2018-11-28T17:30:36.585Z,22.27
2018-11-28T17:33:04.858Z,29.70
2018-11-28T17:35:32.836Z,38.70
2018-11-28T17:38:00.791Z,43.70
2018-11-28T17:40:28.971Z,34.87
2018-11-28T17:42:57.454Z,27.80
2018-11-28T17:45:25.023Z,23.37
2018-11-28T17:47:52.962Z,24.40
2018-11-28T17:50:21.699Z,33.20
2018-11-28T17:53:06.357Z,23.17
2018-11-28T17:55:35.513Z,30.03
2018-11-28T17:58:03.503Z,38.50
2018-11-28T18:00:31.458Z,23.90
2018-11-28T18:02:59.393Z,29.50
2018-11-28T18:05:27.323Z,32.57
2018-11-28T18:07:55.270Z,29.57
2018-11-28T18:10:23.202Z,35.37
2018-11-28T18:12:56.890Z,45.70
2018-11-28T18:15:24.802Z,35.67
2018-11-28T18:17:53.499Z,37.40
2018-11-28T18:20:21.430Z,32.87
2018-11-28T18:22:49.398Z,27.33
2018-11-28T18:25:17.329Z,26.07
2018-11-28T18:27:45.324Z,27.53
2018-11-28T18:30:13.238Z,32.83
2018-11-28T18:32:41.266Z,23.13
2018-11-28T18:35:09.695Z,22.83
2018-11-28T18:37:37.689Z,30.37
2018-11-28T18:40:09.147Z,25.70
2018-11-28T18:42:37.210Z,48.10
2018-11-28T18:45:04.703Z,28.40
2018-11-28T18:47:32.719Z,26.93
2018-11-28T18:50:01.311Z,27.40
2018-11-28T18:52:29.275Z,30.93
2018-11-28T18:54:57.215Z,26.80
2018-11-28T18:57:25.209Z,29.80
2018-11-28T18:59:53.174Z,31.53
2018-11-28T19:02:21.154Z,25.93
2018-11-28T19:04:49.104Z,32.93
2018-11-28T19:07:17.059Z,28.00
2018-11-28T19:09:49.514Z,26.17
2018-11-28T19:12:17.842Z,22.47
2018-11-28T19:14:46.048Z,28.80
2018-11-28T19:17:13.719Z,26.07
2018-11-28T19:19:41.666Z,27.00
2018-11-28T19:22:09.610Z,26.63
2018-11-28T19:24:37.554Z,30.73
2018-11-28T19:27:05.671Z,30.47
2018-11-28T19:29:33.614Z,26.37
2018-11-28T19:32:01.605Z,35.47
2018-11-28T19:34:29.539Z,34.97
2018-11-28T19:36:57.531Z,36.43
2018-11-28T19:39:25.467Z,25.30
2018-11-28T19:41:53.466Z,22.90
2018-11-28T19:44:21.475Z,26.60
2018-11-28T19:46:49.531Z,26.77
2018-11-28T19:49:17.484Z,23.20
2018-11-28T19:51:44.954Z,27.93
2018-11-28T19:54:12.901Z,27.83
2018-11-28T19:56:40.850Z,25.33
2018-11-28T19:59:08.856Z,22.73
2018-11-28T20:01:36.803Z,22.47
2018-11-28T20:04:04.726Z,27.33
2018-11-28T20:06:32.678Z,27.07
2018-11-28T20:09:00.632Z,21.83
2018-11-28T20:11:28.595Z,22.87
2018-11-28T20:13:56.546Z,26.27
2018-11-28T20:16:24.481Z,21.67
2018-11-28T20:18:52.431Z,28.30
2018-11-28T20:21:20.667Z,27.07
2018-11-28T20:23:48.597Z,25.33
2018-11-28T20:26:16.576Z,28.10
2018-11-28T20:28:44.501Z,27.60
2018-11-28T20:31:13.301Z,21.80
2018-11-28T20:33:41.300Z,24.30
2018-11-28T20:36:09.344Z,22.60
2018-11-28T20:38:37.278Z,21.80
2018-11-28T20:41:05.487Z,18.80
2018-11-28T20:43:32.967Z,22.77
2018-11-28T20:46:00.991Z,23.03
2018-11-28T20:48:28.914Z,24.73
2018-11-28T20:50:56.938Z,19.53
2018-11-28T20:53:24.882Z,21.83
2018-11-28T20:55:52.806Z,19.07
2018-11-28T20:58:20.738Z,21.40
2018-11-28T21:00:48.693Z,23.13
2018-11-28T21:03:16.639Z,17.77
2018-11-28T21:05:44.562Z,21.43
2018-11-28T21:08:12.498Z,21.20
2018-11-28T21:10:41.143Z,20.07
2018-11-28T21:13:11.548Z,19.60
2018-11-28T21:15:39.802Z,21.47
2018-11-28T21:18:08.284Z,21.10
2018-11-28T21:20:36.406Z,23.30
2018-11-28T21:23:05.400Z,20.90
2018-11-28T21:25:33.371Z,21.10
2018-11-28T21:28:01.294Z,17.60
2018-11-28T21:30:29.234Z,23.37
2018-11-28T21:32:58.042Z,21.83
2018-11-28T21:35:27.662Z,20.40
2018-11-28T21:37:55.583Z,17.63
2018-11-28T21:40:23.514Z,19.30
2018-11-28T21:42:51.571Z,18.00
2018-11-28T21:45:19.038Z,20.83
2018-11-28T21:47:47.090Z,18.80
2018-11-28T21:50:15.497Z,19.93
2018-11-28T21:52:43.562Z,19.47
2018-11-28T21:55:11.958Z,19.53
2018-11-28T21:57:39.879Z,23.07
2018-11-28T22:00:11.362Z,19.10
2018-11-28T22:02:39.286Z,19.80
2018-11-28T22:05:07.915Z,21.80
2018-11-28T22:07:35.833Z,17.30
2018-11-28T22:10:04.852Z,19.83
2018-11-28T22:12:32.810Z,21.87
2018-11-28T22:15:00.766Z,17.07
2018-11-28T22:17:28.693Z,18.23
2018-11-28T22:19:56.637Z,20.77
2018-11-28T22:22:24.582Z,18.23
2018-11-28T22:24:52.550Z,18.20
2018-11-28T22:27:20.557Z,20.70
2018-11-28T22:29:48.491Z,18.93
2018-11-28T22:32:16.424Z,18.70
2018-11-28T22:34:45.370Z,22.10
2018-11-28T22:37:13.315Z,21.13
2018-11-28T22:39:41.546Z,17.80
2018-11-28T22:42:09.481Z,20.50
2018-11-28T22:44:38.388Z,20.20
2018-11-28T22:47:06.314Z,20.47
2018-11-28T22:49:34.242Z,19.53
2018-11-28T22:52:02.193Z,18.57
2018-11-28T22:54:30.165Z,21.20
2018-11-28T22:56:58.122Z,20.40
2018-11-28T22:59:26.066Z,20.33
2018-11-28T23:03:00.872Z,20.77
2018-11-28T23:05:33.333Z,20.60
2018-11-28T23:08:01.657Z,20.40
2018-11-28T23:10:29.613Z,17.00
2018-11-28T23:12:57.567Z,22.17
2018-11-28T23:15:25.493Z,20.17
2018-11-28T23:17:55.281Z,18.47
2018-11-28T23:20:21.394Z,20.50
2018-11-28T23:22:49.415Z,21.40
2018-11-28T23:25:17.349Z,21.23
2018-11-28T23:27:45.348Z,21.70
2018-11-28T23:30:14.856Z,26.43
2018-11-28T23:32:42.782Z,21.50
2018-11-28T23:35:11.048Z,24.03
2018-11-28T23:37:39.492Z,25.93
2018-11-28T23:40:11.058Z,20.47
2018-11-28T23:42:38.988Z,22.27
